createdAt,value
2017-01-10T00:00:55.351Z,0
2017-01-10T00:02:06.745Z,0
2017-01-10T00:03:18.164Z,0
2017-01-10T00:04:29.560Z,0
2017-01-10T00:05:41.007Z,0
2017-01-10T00:06:52.606Z,0
2017-01-10T00:08:04.000Z,0
2017-01-10T00:09:15.400Z,0
2017-01-10T00:10:26.816Z,0
2017-01-10T00:11:38.470Z,0
2017-01-10T00:12:49.864Z,0
2017-01-10T00:14:01.256Z,0
2017-01-10T00:15:12.651Z,0
2017-01-10T00:16:24.050Z,0
2017-01-10T00:17:35.500Z,0
2017-01-10T00:18:46.902Z,0
2017-01-10T00:19:58.533Z,0
2017-01-10T00:21:09.930Z,0
2017-01-10T00:22:21.347Z,0
2017-01-10T00:23:32.991Z,0
2017-01-10T00:24:44.396Z,0
2017-01-10T00:25:55.794Z,0
2017-01-10T00:27:07.204Z,0
2017-01-10T00:28:18.595Z,0
2017-01-10T00:29:30.053Z,0
2017-01-10T00:30:41.461Z,0
2017-01-10T00:31:52.866Z,0
2017-01-10T00:33:04.294Z,0
2017-01-10T00:34:15.695Z,0
2017-01-10T00:35:27.179Z,0
2017-01-10T00:36:38.579Z,0
2017-01-10T00:37:49.977Z,0
2017-01-10T00:39:01.362Z,0
2017-01-10T00:40:12.970Z,0
2017-01-10T00:41:24.621Z,0
2017-01-10T00:42:36.021Z,0
2017-01-10T00:43:47.445Z,0
2017-01-10T00:44:59.042Z,0
2017-01-10T00:46:10.443Z,0
2017-01-10T00:47:21.900Z,0
2017-01-10T00:48:33.307Z,0
2017-01-10T00:49:44.720Z,0
2017-01-10T00:50:56.114Z,0
2017-01-10T00:52:07.517Z,0
2017-01-10T00:53:19.165Z,0
2017-01-10T00:54:30.573Z,0
2017-01-10T00:55:42.371Z,0
2017-01-10T00:56:53.775Z,0
2017-01-10T00:58:05.173Z,0
2017-01-10T00:59:16.815Z,0
2017-01-10T01:00:28.218Z,0
2017-01-10T01:01:39.811Z,0
2017-01-10T01:02:51.419Z,0
2017-01-10T01:04:02.817Z,0
2017-01-10T01:05:14.268Z,0
2017-01-10T01:06:25.678Z,0
2017-01-10T01:07:37.081Z,0
2017-01-10T01:08:48.484Z,0
2017-01-10T01:09:59.914Z,0
2017-01-10T01:11:11.372Z,0
2017-01-10T01:12:22.973Z,0
2017-01-10T01:13:34.569Z,0
2017-01-10T01:14:45.966Z,0
2017-01-10T01:15:57.368Z,0
2017-01-10T01:17:08.827Z,0
2017-01-10T01:18:20.225Z,0
2017-01-10T01:19:31.620Z,0
2017-01-10T01:20:43.023Z,0
2017-01-10T01:21:54.830Z,0
2017-01-10T01:23:06.286Z,0
2017-01-10T01:24:17.685Z,0
2017-01-10T01:25:29.085Z,0
2017-01-10T01:26:40.482Z,0
2017-01-10T01:27:52.084Z,0
2017-01-10T01:29:03.528Z,0
2017-01-10T01:30:14.954Z,0
2017-01-10T01:31:26.554Z,0
2017-01-10T01:32:37.953Z,0
2017-01-10T01:33:49.377Z,0
2017-01-10T01:35:00.830Z,0
2017-01-10T01:36:12.228Z,0
2017-01-10T01:37:23.632Z,0
2017-01-10T01:38:35.033Z,0
2017-01-10T01:39:46.440Z,0
2017-01-10T01:40:57.843Z,0
2017-01-10T01:42:09.239Z,0
2017-01-10T01:43:20.647Z,0
2017-01-10T01:44:32.043Z,0
2017-01-10T01:45:43.499Z,0
2017-01-10T01:46:54.891Z,0
2017-01-10T01:48:06.292Z,0
2017-01-10T01:49:17.697Z,0
2017-01-10T01:50:29.090Z,0
2017-01-10T01:51:40.541Z,0
2017-01-10T01:52:51.941Z,0
2017-01-10T01:54:03.345Z,0
2017-01-10T01:55:14.741Z,0
2017-01-10T01:56:26.144Z,0
2017-01-10T01:57:37.592Z,0
2017-01-10T01:58:48.988Z,0
2017-01-10T02:00:00.590Z,0
2017-01-10T02:01:11.994Z,0
2017-01-10T02:02:23.601Z,0
2017-01-10T02:03:35.049Z,0
2017-01-10T02:04:46.461Z,0
2017-01-10T02:05:57.864Z,0
2017-01-10T02:07:09.470Z,0
2017-01-10T02:08:20.874Z,0
2017-01-10T02:09:32.524Z,0
2017-01-10T02:10:43.925Z,0
2017-01-10T02:11:55.355Z,0
2017-01-10T02:13:06.968Z,0
2017-01-10T02:14:18.365Z,0
2017-01-10T02:15:29.821Z,0
2017-01-10T02:16:41.218Z,0
2017-01-10T02:17:52.615Z,0
2017-01-10T02:19:04.007Z,0
2017-01-10T02:20:15.616Z,0
2017-01-10T02:21:27.068Z,0
2017-01-10T02:22:38.669Z,0
2017-01-10T02:23:50.063Z,0
2017-01-10T02:25:01.463Z,0
2017-01-10T02:26:12.863Z,0
2017-01-10T02:27:24.309Z,0
2017-01-10T02:28:35.909Z,0
2017-01-10T02:29:47.307Z,0
2017-01-10T02:30:58.714Z,0
2017-01-10T02:32:10.124Z,0
2017-01-10T02:33:21.571Z,0
2017-01-10T02:34:32.969Z,0
2017-01-10T02:35:44.371Z,0
2017-01-10T02:36:56.178Z,0
2017-01-10T02:38:07.582Z,0
2017-01-10T02:39:19.230Z,0
2017-01-10T02:40:30.630Z,0
2017-01-10T02:41:42.038Z,0
2017-01-10T02:42:53.644Z,0
2017-01-10T02:44:05.246Z,0
2017-01-10T02:45:17.101Z,0
2017-01-10T02:46:28.492Z,0
2017-01-10T02:47:39.888Z,0
2017-01-10T02:48:51.517Z,0
2017-01-10T02:50:02.918Z,0
2017-01-10T02:51:14.374Z,0
2017-01-10T02:52:25.768Z,0
2017-01-10T02:53:37.173Z,0
2017-01-10T02:54:48.569Z,0
2017-01-10T02:55:59.960Z,0
2017-01-10T02:57:11.427Z,0
2017-01-10T02:58:22.828Z,0
2017-01-10T02:59:34.231Z,0
2017-01-10T03:00:45.828Z,0
2017-01-10T03:01:57.240Z,0
2017-01-10T03:03:08.697Z,0
2017-01-10T03:04:20.101Z,0
2017-01-10T03:05:31.515Z,0
2017-01-10T03:06:42.944Z,0
2017-01-10T03:07:54.353Z,0
2017-01-10T03:09:05.810Z,0
2017-01-10T03:10:17.208Z,0
2017-01-10T03:11:28.611Z,0
2017-01-10T03:12:40.019Z,0
2017-01-10T03:13:51.625Z,0
2017-01-10T03:15:03.073Z,0
2017-01-10T03:16:14.504Z,0
2017-01-10T03:17:26.108Z,0
2017-01-10T03:18:37.541Z,0
2017-01-10T03:19:49.153Z,0
2017-01-10T03:21:00.545Z,0
2017-01-10T03:22:11.954Z,0
2017-01-10T03:23:23.552Z,0
2017-01-10T03:24:34.954Z,0
2017-01-10T03:25:46.394Z,0
2017-01-10T03:26:57.793Z,0
2017-01-10T03:28:09.194Z,0
2017-01-10T03:29:20.596Z,0
2017-01-10T03:30:31.990Z,0
2017-01-10T03:31:43.434Z,0
2017-01-10T03:32:55.069Z,0
2017-01-10T03:34:06.474Z,0
2017-01-10T03:35:17.876Z,0
2017-01-10T03:36:29.278Z,0
2017-01-10T03:37:40.730Z,0
2017-01-10T03:38:52.134Z,0
2017-01-10T03:40:03.548Z,0
2017-01-10T03:41:14.950Z,0
2017-01-10T03:42:26.341Z,0
2017-01-10T03:43:37.789Z,0
2017-01-10T03:44:49.199Z,0
2017-01-10T03:46:00.603Z,0
2017-01-10T03:47:12.208Z,0
2017-01-10T03:48:23.617Z,0
2017-01-10T03:49:35.070Z,0
2017-01-10T03:50:46.675Z,0
2017-01-10T03:51:58.083Z,0
2017-01-10T03:53:09.482Z,0
2017-01-10T03:54:20.893Z,0
2017-01-10T03:55:32.336Z,0
2017-01-10T03:56:43.733Z,0
2017-01-10T03:57:55.138Z,0
2017-01-10T03:59:06.544Z,0
2017-01-10T04:00:17.953Z,0
2017-01-10T04:01:29.399Z,0
2017-01-10T04:02:41.007Z,0
2017-01-10T04:03:52.404Z,0
2017-01-10T04:05:03.810Z,0
2017-01-10T04:06:15.416Z,0
2017-01-10T04:07:27.066Z,0
2017-01-10T04:08:38.465Z,0
2017-01-10T04:09:50.273Z,0
2017-01-10T04:11:01.682Z,0
2017-01-10T04:12:13.083Z,0
2017-01-10T04:13:24.533Z,0
2017-01-10T04:14:35.944Z,0
2017-01-10T04:15:47.336Z,0
2017-01-10T04:16:58.737Z,0
2017-01-10T04:18:10.137Z,0
2017-01-10T04:19:21.586Z,0
2017-01-10T04:20:33.181Z,0
2017-01-10T04:21:44.586Z,0
2017-01-10T04:22:55.995Z,0
2017-01-10T04:24:07.402Z,0
2017-01-10T04:25:18.855Z,0
2017-01-10T04:26:30.248Z,0
2017-01-10T04:27:41.649Z,0
2017-01-10T04:28:53.049Z,0
2017-01-10T04:30:04.455Z,0
2017-01-10T04:31:15.912Z,0
2017-01-10T04:32:27.515Z,0
2017-01-10T04:33:38.916Z,0
2017-01-10T04:34:50.323Z,0
2017-01-10T04:36:01.733Z,0
2017-01-10T04:37:13.177Z,0
2017-01-10T04:38:24.578Z,0
2017-01-10T04:39:35.986Z,0
2017-01-10T04:40:47.385Z,0
2017-01-10T04:41:58.789Z,0
2017-01-10T04:43:10.241Z,0
2017-01-10T04:44:21.649Z,0
2017-01-10T04:45:33.079Z,0
2017-01-10T04:46:44.478Z,0
2017-01-10T04:47:55.879Z,0
2017-01-10T04:49:07.337Z,0
2017-01-10T04:50:18.729Z,0
2017-01-10T04:51:30.136Z,0
2017-01-10T04:52:41.534Z,0
2017-01-10T04:53:52.937Z,0
2017-01-10T04:55:04.392Z,0
2017-01-10T04:56:15.795Z,0
2017-01-10T04:57:27.184Z,0
2017-01-10T04:58:38.583Z,0
2017-01-10T04:59:50.186Z,0
2017-01-10T05:01:01.629Z,0
2017-01-10T05:02:13.026Z,0
2017-01-10T05:03:24.430Z,0
2017-01-10T05:04:35.844Z,0
2017-01-10T05:05:47.294Z,0
2017-01-10T05:06:58.703Z,0
2017-01-10T05:08:10.298Z,0
2017-01-10T05:09:21.696Z,0
2017-01-10T05:10:33.096Z,0
2017-01-10T05:11:44.551Z,0
2017-01-10T05:12:55.944Z,0
2017-01-10T05:14:07.348Z,0
2017-01-10T05:15:18.744Z,0
2017-01-10T05:16:30.350Z,0
2017-01-10T05:17:41.799Z,0
2017-01-10T05:18:53.221Z,0
2017-01-10T05:20:04.626Z,0
2017-01-10T05:21:16.052Z,0
2017-01-10T05:22:27.460Z,0
2017-01-10T05:23:38.917Z,0
2017-01-10T05:24:50.317Z,0
2017-01-10T05:26:01.725Z,0
2017-01-10T05:27:13.137Z,0
2017-01-10T05:28:24.548Z,0
2017-01-10T05:29:36.003Z,0
2017-01-10T05:30:47.397Z,0
2017-01-10T05:31:59.205Z,0
2017-01-10T05:33:10.606Z,0
2017-01-10T05:34:22.004Z,0
2017-01-10T05:35:33.457Z,0
2017-01-10T05:36:44.858Z,0
2017-01-10T05:37:56.256Z,0
2017-01-10T05:39:07.663Z,0
2017-01-10T05:40:19.064Z,0
2017-01-10T05:41:30.727Z,0
2017-01-10T05:42:42.126Z,0
2017-01-10T05:43:53.526Z,0
2017-01-10T05:45:04.923Z,0
2017-01-10T05:46:16.327Z,0
2017-01-10T05:47:27.782Z,0
2017-01-10T05:48:39.184Z,0
2017-01-10T05:49:50.589Z,0
2017-01-10T05:51:01.989Z,0
2017-01-10T05:52:13.592Z,0
2017-01-10T05:53:25.053Z,0
2017-01-10T05:54:36.450Z,0
2017-01-10T05:55:47.849Z,0
2017-01-10T05:56:59.444Z,0
2017-01-10T05:58:11.070Z,0
2017-01-10T05:59:22.541Z,0
2017-01-10T06:00:33.940Z,0
2017-01-10T06:01:45.343Z,0
2017-01-10T06:02:56.745Z,0
2017-01-10T06:04:08.344Z,0
2017-01-10T06:05:19.806Z,0
2017-01-10T06:06:31.208Z,0
2017-01-10T06:07:42.615Z,0
2017-01-10T06:08:54.047Z,0
2017-01-10T06:10:05.444Z,0
2017-01-10T06:11:16.890Z,0
2017-01-10T06:12:28.282Z,0
2017-01-10T06:13:39.678Z,0
2017-01-10T06:14:51.284Z,0
2017-01-10T06:16:02.684Z,0
2017-01-10T06:17:14.336Z,0
2017-01-10T06:18:25.745Z,0
2017-01-10T06:19:37.139Z,0
2017-01-10T06:20:48.938Z,0
2017-01-10T06:22:00.338Z,0
2017-01-10T06:23:11.801Z,0
2017-01-10T06:24:23.197Z,0
2017-01-10T06:25:34.583Z,0
2017-01-10T06:26:46.197Z,0
2017-01-10T06:27:57.595Z,0
2017-01-10T06:29:09.240Z,0
2017-01-10T06:30:20.642Z,0
2017-01-10T06:31:32.043Z,0
2017-01-10T06:32:43.445Z,0
2017-01-10T06:33:54.837Z,0
2017-01-10T06:35:06.286Z,0
2017-01-10T06:36:17.689Z,0
2017-01-10T06:37:29.087Z,0
2017-01-10T06:38:40.483Z,0
2017-01-10T06:39:51.886Z,0
2017-01-10T06:41:03.484Z,0
2017-01-10T06:42:14.880Z,0
2017-01-10T06:43:26.480Z,0
2017-01-10T06:44:38.076Z,0
2017-01-10T06:45:49.585Z,0
2017-01-10T06:47:00.988Z,0
2017-01-10T06:48:12.397Z,0
2017-01-10T06:49:23.793Z,0
2017-01-10T06:50:35.187Z,0
2017-01-10T06:51:46.839Z,0
2017-01-10T06:52:58.443Z,0
2017-01-10T06:54:09.889Z,0
2017-01-10T06:55:21.285Z,0
2017-01-10T06:56:32.692Z,0
2017-01-10T06:57:44.345Z,0
2017-01-10T06:58:55.742Z,0
2017-01-10T07:00:07.152Z,0
2017-01-10T07:01:18.558Z,0
2017-01-10T07:02:29.955Z,0
2017-01-10T07:03:41.411Z,0
2017-01-10T07:04:52.824Z,0
2017-01-10T07:06:04.217Z,0
2017-01-10T07:07:15.614Z,0
2017-01-10T07:08:27.014Z,4
2017-01-10T07:09:38.676Z,4
2017-01-10T07:10:50.079Z,0
2017-01-10T07:12:01.477Z,0
2017-01-10T07:13:13.075Z,0
2017-01-10T07:14:24.479Z,4
2017-01-10T07:15:35.925Z,4
2017-01-10T07:16:47.314Z,4
2017-01-10T07:17:58.713Z,4
2017-01-10T07:19:10.118Z,4
2017-01-10T07:20:21.517Z,8
2017-01-10T07:21:32.973Z,8
2017-01-10T07:22:44.590Z,8
2017-01-10T07:23:55.983Z,12
2017-01-10T07:25:07.385Z,8
2017-01-10T07:26:18.789Z,12
2017-01-10T07:27:30.183Z,16
2017-01-10T07:28:41.588Z,16
2017-01-10T07:29:52.983Z,20
2017-01-10T07:31:04.389Z,20
2017-01-10T07:32:15.836Z,24
2017-01-10T07:33:27.224Z,24
2017-01-10T07:34:38.823Z,24
2017-01-10T07:35:50.424Z,28
2017-01-10T07:37:01.820Z,28
2017-01-10T07:38:13.274Z,24
2017-01-10T07:39:24.865Z,28
2017-01-10T07:40:36.460Z,32
2017-01-10T07:41:47.856Z,40
2017-01-10T07:42:59.284Z,44
2017-01-10T07:44:10.728Z,52
2017-01-10T07:45:22.128Z,52
2017-01-10T07:46:33.519Z,56
2017-01-10T07:47:45.121Z,60
2017-01-10T07:48:56.523Z,72
2017-01-10T07:50:07.993Z,76
2017-01-10T07:51:19.599Z,88
2017-01-10T07:52:30.997Z,92
2017-01-10T07:53:42.393Z,92
2017-01-10T07:54:53.795Z,100
2017-01-10T07:56:05.283Z,128
2017-01-10T07:57:16.681Z,156
2017-01-10T07:58:28.079Z,176
2017-01-10T07:59:39.475Z,176
2017-01-10T08:00:50.881Z,184
2017-01-10T08:02:02.325Z,188
2017-01-10T08:03:13.929Z,188
2017-01-10T08:04:25.330Z,188
2017-01-10T08:05:36.726Z,184
2017-01-10T08:06:48.147Z,188
2017-01-10T08:07:59.591Z,192
2017-01-10T08:09:10.987Z,212
2017-01-10T08:10:22.385Z,224
2017-01-10T08:11:33.776Z,228
2017-01-10T08:12:45.172Z,224
2017-01-10T08:13:56.647Z,232
2017-01-10T08:15:08.043Z,224
2017-01-10T08:16:19.439Z,216
2017-01-10T08:17:30.845Z,228
2017-01-10T08:18:42.452Z,248
2017-01-10T08:19:54.105Z,264
2017-01-10T08:21:05.502Z,256
2017-01-10T08:22:16.906Z,252
2017-01-10T08:23:28.314Z,244
2017-01-10T08:24:39.704Z,240
2017-01-10T08:25:51.152Z,220
2017-01-10T08:27:02.557Z,204
2017-01-10T08:28:14.192Z,180
2017-01-10T08:29:25.590Z,164
2017-01-10T08:30:36.985Z,164
2017-01-10T08:31:48.644Z,172
2017-01-10T08:33:00.049Z,172
2017-01-10T08:34:11.651Z,172
2017-01-10T08:35:23.049Z,160
2017-01-10T08:36:34.450Z,148
2017-01-10T08:37:45.906Z,160
2017-01-10T08:38:57.310Z,168
2017-01-10T08:40:08.706Z,180
2017-01-10T08:41:20.298Z,196
2017-01-10T08:42:31.903Z,200
2017-01-10T08:43:43.354Z,188
2017-01-10T08:44:54.757Z,196
2017-01-10T08:46:06.152Z,208
2017-01-10T08:47:17.556Z,224
2017-01-10T08:48:28.958Z,228
2017-01-10T08:49:40.606Z,248
2017-01-10T08:50:52.013Z,264
2017-01-10T08:52:03.615Z,272
2017-01-10T08:53:15.222Z,336
2017-01-10T08:54:26.822Z,308
2017-01-10T08:55:38.272Z,260
2017-01-10T08:56:49.665Z,276
2017-01-10T08:58:01.272Z,304
2017-01-10T08:59:12.877Z,356
2017-01-10T09:00:24.281Z,364
2017-01-10T09:01:35.926Z,340
2017-01-10T09:02:47.331Z,296
2017-01-10T09:03:58.733Z,284
2017-01-10T09:05:10.137Z,272
2017-01-10T09:06:21.737Z,272
2017-01-10T09:07:33.195Z,268
2017-01-10T09:08:44.608Z,276
2017-01-10T09:09:56.003Z,296
2017-01-10T09:11:07.408Z,268
2017-01-10T09:12:18.815Z,264
2017-01-10T09:13:30.263Z,304
2017-01-10T09:14:41.655Z,356
2017-01-10T09:15:53.054Z,408
2017-01-10T09:17:04.456Z,392
2017-01-10T09:18:16.068Z,384
2017-01-10T09:19:27.528Z,368
2017-01-10T09:20:38.926Z,408
2017-01-10T09:21:50.340Z,424
2017-01-10T09:23:01.941Z,432
2017-01-10T09:24:13.341Z,520
2017-01-10T09:25:24.798Z,540
2017-01-10T09:26:36.205Z,524
2017-01-10T09:27:47.600Z,552
2017-01-10T09:28:59.001Z,604
2017-01-10T09:30:10.801Z,640
2017-01-10T09:31:22.247Z,640
2017-01-10T09:32:33.691Z,548
2017-01-10T09:33:45.088Z,468
2017-01-10T09:34:56.482Z,452
2017-01-10T09:36:07.880Z,504
2017-01-10T09:37:19.327Z,636
2017-01-10T09:38:30.731Z,764
2017-01-10T09:39:42.126Z,824
2017-01-10T09:40:53.526Z,776
2017-01-10T09:42:04.926Z,760
2017-01-10T09:43:16.395Z,852
2017-01-10T09:44:27.788Z,952
2017-01-10T09:45:39.189Z,1000
2017-01-10T09:46:50.785Z,1176
2017-01-10T09:48:02.188Z,1492
2017-01-10T09:49:13.859Z,1560
2017-01-10T09:50:25.264Z,1940
2017-01-10T09:51:36.866Z,1980
2017-01-10T09:52:48.271Z,2440
2017-01-10T09:53:59.666Z,2296
2017-01-10T09:55:11.121Z,2768
2017-01-10T09:56:22.515Z,2312
2017-01-10T09:57:33.918Z,2088
2017-01-10T09:58:45.316Z,1968
2017-01-10T09:59:56.719Z,1944
2017-01-10T10:01:08.116Z,1804
2017-01-10T10:02:19.508Z,1648
2017-01-10T10:03:30.904Z,1556
2017-01-10T10:04:42.512Z,1660
2017-01-10T10:05:53.964Z,1952
2017-01-10T10:07:05.371Z,2100
2017-01-10T10:08:16.775Z,2460
2017-01-10T10:09:28.375Z,2712
2017-01-10T10:10:39.978Z,3032
2017-01-10T10:11:51.428Z,2804
2017-01-10T10:13:02.825Z,3156
2017-01-10T10:14:14.428Z,3488
2017-01-10T10:15:25.829Z,3492
2017-01-10T10:16:37.223Z,2996
2017-01-10T10:17:48.675Z,2348
2017-01-10T10:19:00.277Z,2300
2017-01-10T10:20:11.687Z,2332
2017-01-10T10:21:23.089Z,2424
2017-01-10T10:22:34.492Z,2524
2017-01-10T10:23:45.946Z,2916
2017-01-10T10:24:57.383Z,2964
2017-01-10T10:26:08.984Z,2856
2017-01-10T10:27:20.378Z,3252
2017-01-10T10:28:31.769Z,2976
2017-01-10T10:29:43.218Z,2560
2017-01-10T10:30:54.629Z,2392
2017-01-10T10:32:06.038Z,2288
2017-01-10T10:33:17.439Z,2384
2017-01-10T10:34:29.057Z,2312
2017-01-10T10:35:40.506Z,2208
2017-01-10T10:36:52.098Z,2372
2017-01-10T10:38:03.693Z,2320
2017-01-10T10:39:15.093Z,2156
2017-01-10T10:40:26.495Z,2048
2017-01-10T10:41:38.152Z,2180
2017-01-10T10:42:49.549Z,2156
2017-01-10T10:44:00.950Z,2292
2017-01-10T10:45:12.538Z,2160
2017-01-10T10:46:24.146Z,2164
2017-01-10T10:47:35.797Z,2424
2017-01-10T10:48:47.199Z,2636
2017-01-10T10:49:58.593Z,2700
2017-01-10T10:51:09.995Z,2872
2017-01-10T10:52:21.397Z,3032
2017-01-10T10:53:32.846Z,3320
2017-01-10T10:54:44.453Z,3492
2017-01-10T10:55:55.852Z,4008
2017-01-10T10:57:07.461Z,4164
2017-01-10T10:58:18.865Z,4308
2017-01-10T10:59:30.314Z,4668
2017-01-10T11:00:41.722Z,4188
2017-01-10T11:01:53.324Z,4520
2017-01-10T11:03:04.735Z,5072
2017-01-10T11:04:16.140Z,5372
2017-01-10T11:05:27.585Z,4568
2017-01-10T11:06:38.988Z,5348
2017-01-10T11:07:50.590Z,4536
2017-01-10T11:09:02.001Z,4020
2017-01-10T11:10:13.410Z,4852
2017-01-10T11:11:24.853Z,3696
2017-01-10T11:12:36.253Z,3120
2017-01-10T11:13:47.659Z,3004
2017-01-10T11:14:59.055Z,3436
2017-01-10T11:16:10.462Z,3916
2017-01-10T11:17:21.909Z,4232
2017-01-10T11:18:33.306Z,4692
2017-01-10T11:19:44.909Z,4500
2017-01-10T11:20:56.512Z,5308
2017-01-10T11:22:07.912Z,6256
2017-01-10T11:23:19.382Z,4996
2017-01-10T11:24:30.784Z,4880
2017-01-10T11:25:42.211Z,4972
2017-01-10T11:26:53.612Z,4964
2017-01-10T11:28:05.012Z,5508
2017-01-10T11:29:16.667Z,4780
2017-01-10T11:30:28.072Z,5048
2017-01-10T11:31:39.476Z,7332
2017-01-10T11:32:50.888Z,8236
2017-01-10T11:34:02.293Z,9636
2017-01-10T11:35:13.746Z,4968
2017-01-10T11:36:25.351Z,3488
2017-01-10T11:37:36.749Z,4200
2017-01-10T11:38:48.155Z,4696
2017-01-10T11:39:59.556Z,4036
2017-01-10T11:41:11.008Z,3268
2017-01-10T11:42:22.409Z,2936
2017-01-10T11:43:33.806Z,3704
2017-01-10T11:44:45.213Z,4488
2017-01-10T11:45:56.820Z,2744
2017-01-10T11:47:08.278Z,2088
2017-01-10T11:48:19.690Z,2028
2017-01-10T11:49:31.098Z,2448
2017-01-10T11:50:42.501Z,2936
2017-01-10T11:51:53.907Z,3280
2017-01-10T11:53:05.360Z,3068
2017-01-10T11:54:16.786Z,3056
2017-01-10T11:55:28.190Z,3592
2017-01-10T11:56:39.583Z,3484
2017-01-10T11:57:50.996Z,3056
2017-01-10T11:59:02.472Z,2676
2017-01-10T12:00:14.093Z,2280
2017-01-10T12:01:25.498Z,2288
2017-01-10T12:02:36.904Z,2712
2017-01-10T12:03:48.498Z,3020
2017-01-10T12:04:59.945Z,3200
2017-01-10T12:06:11.342Z,3524
2017-01-10T12:07:22.738Z,3844
2017-01-10T12:08:34.170Z,3760
2017-01-10T12:09:45.564Z,2940
2017-01-10T12:10:56.965Z,2276
2017-01-10T12:12:08.365Z,2056
2017-01-10T12:13:19.770Z,1760
2017-01-10T12:14:31.172Z,1680
2017-01-10T12:15:42.620Z,2108
2017-01-10T12:16:54.028Z,3420
2017-01-10T12:18:05.428Z,4268
2017-01-10T12:19:17.020Z,4028
2017-01-10T12:20:28.423Z,3568
2017-01-10T12:21:39.876Z,3060
2017-01-10T12:22:51.477Z,2876
2017-01-10T12:24:02.900Z,2588
2017-01-10T12:25:14.299Z,2656
2017-01-10T12:26:25.705Z,2660
2017-01-10T12:27:37.159Z,2800
2017-01-10T12:28:48.762Z,3040
2017-01-10T12:30:00.371Z,2952
2017-01-10T12:31:11.777Z,2852
2017-01-10T12:32:23.385Z,2988
2017-01-10T12:33:34.838Z,3264
2017-01-10T12:34:46.243Z,3252
2017-01-10T12:35:57.643Z,2756
2017-01-10T12:37:09.048Z,2812
2017-01-10T12:38:20.651Z,2916
2017-01-10T12:39:32.104Z,3276
2017-01-10T12:40:43.509Z,3500
2017-01-10T12:41:54.913Z,3500
2017-01-10T12:43:06.313Z,3752
2017-01-10T12:44:17.719Z,3164
2017-01-10T12:45:29.177Z,2636
2017-01-10T12:46:40.564Z,2404
2017-01-10T12:47:51.968Z,2280
2017-01-10T12:49:03.369Z,2220
2017-01-10T12:50:14.975Z,2376
2017-01-10T12:51:26.618Z,2620
2017-01-10T12:52:38.035Z,2584
2017-01-10T12:53:49.431Z,2564
2017-01-10T12:55:00.837Z,2192
2017-01-10T12:56:12.238Z,2320
2017-01-10T12:57:23.690Z,2496
2017-01-10T12:58:35.091Z,2560
2017-01-10T12:59:46.492Z,2332
2017-01-10T13:00:57.898Z,2504
2017-01-10T13:02:09.298Z,2564
2017-01-10T13:03:20.751Z,2360
2017-01-10T13:04:32.154Z,2244
2017-01-10T13:05:43.568Z,2272
2017-01-10T13:06:54.967Z,2080
2017-01-10T13:08:06.569Z,1868
2017-01-10T13:09:18.229Z,1700
2017-01-10T13:10:29.631Z,1664
2017-01-10T13:11:41.031Z,1664
2017-01-10T13:12:52.436Z,1616
2017-01-10T13:14:03.840Z,1556
2017-01-10T13:15:15.494Z,1480
2017-01-10T13:16:26.895Z,1472
2017-01-10T13:17:38.305Z,1440
2017-01-10T13:18:49.925Z,1372
2017-01-10T13:20:01.366Z,1340
2017-01-10T13:21:12.821Z,1324
2017-01-10T13:22:24.424Z,1328
2017-01-10T13:23:36.029Z,1300
2017-01-10T13:24:47.438Z,1240
2017-01-10T13:25:58.884Z,1224
2017-01-10T13:27:10.543Z,1204
2017-01-10T13:28:21.942Z,1164
2017-01-10T13:29:33.341Z,1216
2017-01-10T13:30:44.743Z,1320
2017-01-10T13:31:56.149Z,1364
2017-01-10T13:33:07.609Z,1352
2017-01-10T13:34:19.016Z,1344
2017-01-10T13:35:30.417Z,1368
2017-01-10T13:36:41.834Z,1468
2017-01-10T13:37:53.238Z,1656
2017-01-10T13:39:04.903Z,1904
2017-01-10T13:40:16.320Z,1936
2017-01-10T13:41:27.751Z,1860
2017-01-10T13:42:39.183Z,1952
2017-01-10T13:43:50.579Z,2096
2017-01-10T13:45:02.236Z,2084
2017-01-10T13:46:13.642Z,1968
2017-01-10T13:47:25.247Z,1988
2017-01-10T13:48:36.650Z,2088
2017-01-10T13:49:48.058Z,2080
2017-01-10T13:50:59.460Z,1988
2017-01-10T13:52:10.865Z,1856
2017-01-10T13:53:22.293Z,1776
2017-01-10T13:54:33.688Z,1872
2017-01-10T13:55:45.138Z,1856
2017-01-10T13:56:56.542Z,1868
2017-01-10T13:58:07.936Z,1892
2017-01-10T13:59:19.340Z,1820
2017-01-10T14:00:30.752Z,1584
2017-01-10T14:01:42.204Z,1340
2017-01-10T14:02:53.607Z,1188
2017-01-10T14:04:05.013Z,1064
2017-01-10T14:05:16.413Z,1132
2017-01-10T14:06:27.810Z,1304
2017-01-10T14:07:39.261Z,1284
2017-01-10T14:08:50.667Z,1336
2017-01-10T14:10:02.076Z,1304
2017-01-10T14:11:13.494Z,1244
2017-01-10T14:12:25.098Z,1244
2017-01-10T14:13:36.543Z,1256
2017-01-10T14:14:48.142Z,1220
2017-01-10T14:15:59.548Z,1172
2017-01-10T14:17:10.945Z,1120
2017-01-10T14:18:22.356Z,1088
2017-01-10T14:19:34.011Z,1052
2017-01-10T14:20:45.416Z,1020
2017-01-10T14:21:56.819Z,1028
2017-01-10T14:23:08.222Z,1104
2017-01-10T14:24:19.629Z,1168
2017-01-10T14:25:31.081Z,1208
2017-01-10T14:26:42.480Z,1188
2017-01-10T14:27:54.090Z,1112
2017-01-10T14:29:05.712Z,1008
2017-01-10T14:30:17.320Z,940
2017-01-10T14:31:28.766Z,924
2017-01-10T14:32:40.367Z,860
2017-01-10T14:33:51.759Z,792
2017-01-10T14:35:03.159Z,736
2017-01-10T14:36:14.558Z,700
2017-01-10T14:37:26.208Z,684
2017-01-10T14:38:37.602Z,616
2017-01-10T14:39:49.008Z,532
2017-01-10T14:41:00.410Z,472
2017-01-10T14:42:11.815Z,408
2017-01-10T14:43:23.263Z,388
2017-01-10T14:44:34.668Z,404
2017-01-10T14:45:46.267Z,404
2017-01-10T14:46:57.880Z,388
2017-01-10T14:48:09.286Z,384
2017-01-10T14:49:20.744Z,384
2017-01-10T14:50:32.143Z,360
2017-01-10T14:51:43.552Z,348
2017-01-10T14:52:54.960Z,336
2017-01-10T14:54:06.365Z,324
2017-01-10T14:55:18.041Z,336
2017-01-10T14:56:29.443Z,328
2017-01-10T14:57:40.844Z,296
2017-01-10T14:58:52.250Z,268
2017-01-10T15:00:03.661Z,268
2017-01-10T15:01:15.115Z,284
2017-01-10T15:02:26.519Z,288
2017-01-10T15:03:37.921Z,292
2017-01-10T15:04:49.928Z,300
2017-01-10T15:06:01.329Z,320
2017-01-10T15:07:12.775Z,324
2017-01-10T15:08:24.172Z,312
2017-01-10T15:09:35.573Z,280
2017-01-10T15:10:46.976Z,248
2017-01-10T15:11:58.381Z,224
2017-01-10T15:13:09.837Z,208
2017-01-10T15:14:21.443Z,200
2017-01-10T15:15:32.839Z,204
2017-01-10T15:16:44.237Z,200
2017-01-10T15:17:55.638Z,176
2017-01-10T15:19:07.102Z,168
2017-01-10T15:20:18.502Z,168
2017-01-10T15:21:29.909Z,172
2017-01-10T15:22:41.313Z,168
2017-01-10T15:23:52.717Z,156
2017-01-10T15:25:04.165Z,148
2017-01-10T15:26:15.767Z,136
2017-01-10T15:27:27.177Z,120
2017-01-10T15:28:38.579Z,108
2017-01-10T15:29:49.985Z,96
2017-01-10T15:31:01.392Z,88
2017-01-10T15:32:12.792Z,84
2017-01-10T15:33:24.193Z,76
2017-01-10T15:34:35.603Z,68
2017-01-10T15:35:47.252Z,68
2017-01-10T15:36:58.654Z,60
2017-01-10T15:38:10.061Z,56
2017-01-10T15:39:21.459Z,48
2017-01-10T15:40:32.866Z,48
2017-01-10T15:41:44.312Z,44
2017-01-10T15:42:55.921Z,40
2017-01-10T15:44:07.337Z,36
2017-01-10T15:45:18.943Z,40
2017-01-10T15:46:30.336Z,36
2017-01-10T15:47:41.747Z,28
2017-01-10T15:48:53.153Z,28
2017-01-10T15:50:04.758Z,24
2017-01-10T15:51:16.161Z,20
2017-01-10T15:52:27.612Z,16
2017-01-10T15:53:39.015Z,20
2017-01-10T15:54:50.615Z,16
2017-01-10T15:56:02.260Z,12
2017-01-10T15:57:13.661Z,8
2017-01-10T15:58:25.107Z,8
2017-01-10T15:59:36.506Z,8
2017-01-10T16:00:47.934Z,4
2017-01-10T16:01:59.340Z,4
2017-01-10T16:03:10.755Z,4
2017-01-10T16:04:22.200Z,0
2017-01-10T16:05:33.607Z,4
2017-01-10T16:06:45.215Z,0
2017-01-10T16:07:56.614Z,4
2017-01-10T16:09:08.209Z,4
2017-01-10T16:10:19.623Z,0
2017-01-10T16:11:31.024Z,0
2017-01-10T16:12:42.429Z,0
2017-01-10T16:13:53.835Z,0
2017-01-10T16:15:05.292Z,0
2017-01-10T16:16:16.696Z,0
2017-01-10T16:17:28.090Z,0
2017-01-10T16:18:39.708Z,0
2017-01-10T16:19:51.113Z,0
2017-01-10T16:21:02.515Z,0
2017-01-10T16:22:13.914Z,0
2017-01-10T16:23:25.312Z,0
2017-01-10T16:24:36.713Z,0
2017-01-10T16:25:48.160Z,0
2017-01-10T16:26:59.559Z,0
2017-01-10T16:28:10.963Z,0
2017-01-10T16:29:22.371Z,0
2017-01-10T16:30:33.783Z,0
2017-01-10T16:31:45.638Z,0
2017-01-10T16:32:57.074Z,0
2017-01-10T16:34:08.673Z,0
2017-01-10T16:35:20.073Z,0
2017-01-10T16:36:31.677Z,0
2017-01-10T16:37:43.316Z,0
2017-01-10T16:38:54.718Z,0
2017-01-10T16:40:06.117Z,0
2017-01-10T16:41:17.514Z,0
2017-01-10T16:42:29.116Z,0
2017-01-10T16:43:40.567Z,0
2017-01-10T16:44:51.964Z,0
2017-01-10T16:46:03.361Z,0
2017-01-10T16:47:14.774Z,0
2017-01-10T16:48:26.208Z,0
2017-01-10T16:49:37.667Z,0
2017-01-10T16:50:49.064Z,0